createdAt,value
2022-08-31T00:02:53.335Z,15.96
2022-08-31T00:07:46.054Z,15.91
2022-08-31T00:12:42.887Z,15.85
2022-08-31T00:17:37.732Z,15.89
2022-08-31T00:20:06.758Z,15.75
2022-08-31T00:22:33.358Z,15.70
2022-08-31T00:27:26.093Z,15.72
2022-08-31T00:29:52.477Z,15.69
2022-08-31T00:32:21.384Z,15.73
2022-08-31T00:34:49.401Z,15.62
2022-08-31T00:37:15.769Z,15.62
2022-08-31T00:42:08.803Z,15.47
2022-08-31T00:44:35.278Z,15.49
2022-08-31T00:47:02.064Z,15.49
2022-08-31T00:54:49.472Z,15.42
2022-08-31T01:02:15.329Z,15.44
2022-08-31T01:04:41.980Z,15.43
2022-08-31T01:07:09.229Z,15.39
2022-08-31T01:12:08.949Z,15.37
2022-08-31T01:17:07.005Z,15.30
2022-08-31T01:19:38.526Z,15.26
2022-08-31T01:22:16.411Z,15.25
2022-08-31T01:24:46.142Z,15.18
2022-08-31T01:27:15.104Z,15.19
2022-08-31T01:29:41.602Z,15.18
2022-08-31T01:32:08.349Z,15.17
2022-08-31T01:34:34.978Z,15.13
2022-08-31T01:37:01.663Z,15.11
2022-08-31T01:39:28.250Z,15.19
2022-08-31T01:41:54.955Z,15.06
2022-08-31T01:44:26.592Z,15.07
2022-08-31T01:46:53.300Z,14.95
2022-08-31T01:49:21.775Z,14.89
2022-08-31T01:51:50.428Z,14.84
2022-08-31T01:54:17.874Z,14.84
2022-08-31T01:56:46.741Z,14.82
2022-08-31T01:59:20.669Z,14.83
2022-08-31T02:01:56.717Z,14.74
2022-08-31T02:04:26.308Z,14.74
2022-08-31T02:09:24.236Z,14.70
2022-08-31T02:11:51.304Z,14.68
2022-08-31T02:14:18.622Z,14.67
2022-08-31T02:21:39.898Z,14.61
2022-08-31T02:24:08.318Z,14.56
2022-08-31T02:26:34.873Z,14.56
2022-08-31T02:29:03.269Z,14.55
2022-08-31T02:31:29.950Z,14.62
2022-08-31T02:33:59.844Z,14.51
2022-08-31T02:36:26.368Z,14.49
2022-08-31T02:38:53.252Z,14.48
2022-08-31T02:41:20.336Z,14.46
2022-08-31T02:43:48.083Z,14.49
2022-08-31T02:46:15.085Z,14.49
2022-08-31T02:48:52.901Z,14.48
2022-08-31T02:51:20.598Z,14.50
2022-08-31T02:53:47.347Z,14.56
2022-08-31T02:58:41.212Z,14.46
2022-08-31T03:01:07.866Z,14.52
2022-08-31T03:06:02.035Z,14.47
2022-08-31T03:08:28.883Z,14.45
2022-08-31T03:10:57.845Z,14.44
2022-08-31T03:13:24.420Z,14.43
2022-08-31T03:15:51.994Z,14.43
2022-08-31T03:20:44.861Z,14.32
2022-08-31T03:23:12.210Z,14.30
2022-08-31T03:25:39.565Z,14.37
2022-08-31T03:30:35.959Z,14.38
2022-08-31T03:33:06.916Z,14.35
2022-08-31T03:38:02.581Z,14.34
2022-08-31T03:40:30.159Z,14.24
2022-08-31T03:42:58.770Z,14.24
2022-08-31T03:45:27.695Z,14.17
2022-08-31T03:47:54.369Z,14.17
2022-08-31T03:53:04.214Z,14.11
2022-08-31T03:55:32.186Z,14.12
2022-08-31T03:57:59.018Z,14.08
2022-08-31T04:03:00.299Z,14.04
2022-08-31T04:05:32.658Z,14.07
2022-08-31T04:08:19.577Z,13.97
2022-08-31T04:11:12.040Z,13.86
2022-08-31T04:13:57.139Z,13.89
2022-08-31T04:16:43.635Z,13.89
2022-08-31T04:19:31.326Z,13.82
2022-08-31T04:22:08.470Z,13.79
2022-08-31T04:24:40.544Z,13.73
2022-08-31T04:27:06.979Z,13.64
2022-08-31T04:29:33.365Z,13.66
2022-08-31T04:31:59.890Z,13.57
2022-08-31T04:34:26.421Z,13.58
2022-08-31T04:36:52.950Z,13.46
2022-08-31T04:39:20.890Z,13.43
2022-08-31T04:41:50.625Z,13.43
2022-08-31T04:44:19.952Z,13.35
2022-08-31T04:46:51.146Z,13.40
2022-08-31T04:49:17.781Z,13.36
2022-08-31T04:51:45.573Z,13.28
2022-08-31T04:54:13.944Z,13.21
2022-08-31T04:56:44.893Z,13.23
2022-08-31T05:01:58.935Z,13.19
2022-08-31T05:04:41.129Z,13.19
2022-08-31T05:07:07.505Z,13.13
2022-08-31T05:12:00.896Z,13.19
2022-08-31T05:14:28.020Z,13.16
2022-08-31T05:17:06.244Z,13.15
2022-08-31T05:19:41.227Z,13.05
2022-08-31T05:24:37.156Z,13.13
2022-08-31T05:27:03.689Z,13.15
2022-08-31T05:32:31.662Z,13.08
2022-08-31T05:35:01.287Z,13.12
2022-08-31T05:37:28.221Z,13.12
2022-08-31T05:39:54.810Z,13.11
2022-08-31T05:42:21.500Z,13.08
2022-08-31T05:44:48.007Z,13.06
2022-08-31T05:47:15.582Z,13.10
2022-08-31T05:49:43.544Z,13.02
2022-08-31T05:52:13.829Z,13.03
2022-08-31T05:54:40.953Z,13.00
2022-08-31T05:57:07.790Z,13.00
2022-08-31T05:59:35.237Z,13.04
2022-08-31T06:02:03.045Z,13.04
2022-08-31T06:06:59.330Z,13.06
2022-08-31T06:09:30.805Z,13.10
2022-08-31T06:11:57.214Z,13.09
2022-08-31T06:14:23.834Z,13.13
2022-08-31T06:16:50.881Z,13.18
2022-08-31T06:21:49.782Z,13.14
2022-08-31T06:24:20.368Z,13.16
2022-08-31T06:26:57.856Z,13.18
2022-08-31T06:29:31.144Z,13.26
2022-08-31T06:32:00.181Z,13.28
2022-08-31T06:34:28.955Z,13.34
2022-08-31T06:37:18.544Z,13.30
2022-08-31T06:40:00.637Z,13.36
2022-08-31T06:42:38.519Z,13.33
2022-08-31T06:45:11.774Z,13.34
2022-08-31T06:47:42.127Z,13.39
2022-08-31T06:50:10.148Z,13.45
2022-08-31T06:52:38.969Z,13.44
2022-08-31T06:55:19.105Z,13.49
2022-08-31T06:58:23.689Z,13.56
2022-08-31T07:01:13.506Z,13.67
2022-08-31T07:04:00.693Z,13.68
2022-08-31T07:06:35.989Z,13.70
2022-08-31T07:09:05.236Z,13.82
2022-08-31T07:11:38.166Z,13.83
2022-08-31T07:14:09.053Z,13.72
2022-08-31T07:16:38.462Z,13.88
2022-08-31T07:19:06.313Z,13.85
2022-08-31T07:21:39.805Z,13.92
2022-08-31T07:24:06.644Z,13.94
2022-08-31T07:26:44.000Z,13.99
2022-08-31T07:29:14.821Z,14.04
2022-08-31T07:31:46.345Z,14.05
2022-08-31T07:34:21.638Z,13.97
2022-08-31T07:37:23.909Z,13.94
2022-08-31T07:40:10.210Z,13.93
2022-08-31T07:42:40.321Z,13.94
2022-08-31T07:45:12.051Z,13.93
2022-08-31T07:47:45.873Z,13.95
2022-08-31T07:50:16.122Z,14.10
2022-08-31T07:53:11.338Z,14.21
2022-08-31T07:55:47.735Z,14.32
2022-08-31T07:58:39.572Z,14.52
2022-08-31T08:01:06.888Z,14.79
2022-08-31T08:03:33.620Z,14.85
2022-08-31T08:06:19.605Z,14.97
2022-08-31T08:09:22.172Z,15.05
2022-08-31T08:15:21.637Z,15.20
2022-08-31T08:18:05.560Z,15.24
2022-08-31T08:20:39.824Z,15.31
2022-08-31T08:26:08.997Z,15.62
2022-08-31T08:29:05.408Z,15.79
2022-08-31T08:31:33.393Z,15.80
2022-08-31T08:36:26.426Z,16.03
2022-08-31T08:41:25.187Z,16.31
2022-08-31T08:44:00.539Z,16.21
2022-08-31T08:49:43.775Z,16.41
2022-08-31T08:52:14.689Z,16.38
2022-08-31T08:57:15.013Z,16.53
2022-08-31T09:02:34.942Z,16.62
2022-08-31T09:05:39.308Z,16.85
2022-08-31T09:08:55.023Z,16.95
2022-08-31T09:11:58.915Z,17.01
2022-08-31T09:14:47.556Z,17.16
2022-08-31T09:17:43.476Z,17.27
2022-08-31T09:25:19.809Z,17.69
2022-08-31T09:28:16.312Z,17.83
2022-08-31T09:33:24.332Z,17.90
2022-08-31T09:35:58.549Z,18.01
2022-08-31T09:38:40.105Z,18.12
2022-08-31T09:41:29.389Z,18.22
2022-08-31T09:44:17.796Z,18.40
2022-08-31T09:46:51.047Z,18.35
2022-08-31T09:49:25.381Z,18.57
2022-08-31T09:51:52.143Z,18.62
2022-08-31T09:59:47.734Z,18.83
2022-08-31T10:07:43.117Z,18.91
2022-08-31T10:10:28.410Z,19.08
2022-08-31T10:13:22.743Z,19.25
2022-08-31T10:18:39.362Z,19.32
2022-08-31T10:21:11.143Z,19.33
2022-08-31T10:23:54.370Z,19.29
2022-08-31T10:26:31.487Z,19.28
2022-08-31T10:31:31.735Z,19.44
2022-08-31T10:36:54.362Z,19.35
2022-08-31T10:39:32.544Z,19.23
2022-08-31T10:44:42.098Z,18.85
2022-08-31T10:50:00.001Z,18.84
2022-08-31T10:55:28.898Z,18.89
2022-08-31T10:58:07.504Z,18.91
2022-08-31T11:03:27.631Z,18.93
2022-08-31T11:06:00.915Z,18.91
2022-08-31T11:08:54.961Z,19.10
2022-08-31T11:11:35.743Z,19.31
2022-08-31T11:14:33.886Z,19.45
2022-08-31T11:20:05.695Z,19.62
2022-08-31T11:25:28.825Z,19.62
2022-08-31T11:30:29.670Z,19.77
2022-08-31T11:38:40.068Z,20.02
2022-08-31T11:46:26.788Z,19.88
2022-08-31T11:48:53.848Z,19.97
2022-08-31T11:51:42.889Z,19.97
2022-08-31T11:56:44.353Z,20.11
2022-08-31T12:10:14.457Z,19.82
2022-08-31T12:12:52.289Z,19.85
2022-08-31T12:15:21.384Z,19.77
2022-08-31T12:21:19.826Z,19.98
2022-08-31T12:23:58.120Z,19.94
2022-08-31T12:26:45.617Z,20.09
2022-08-31T12:29:26.005Z,20.16
2022-08-31T12:32:29.841Z,20.44
2022-08-31T12:40:20.290Z,20.44
2022-08-31T12:43:25.761Z,20.34
2022-08-31T12:46:00.963Z,20.39
2022-08-31T12:51:12.696Z,20.55
2022-08-31T12:53:51.234Z,20.64
2022-08-31T12:56:23.584Z,20.72
2022-08-31T12:59:08.097Z,20.76
2022-08-31T13:01:41.703Z,20.87
2022-08-31T13:04:10.108Z,20.82
2022-08-31T13:06:40.540Z,20.98
2022-08-31T13:09:07.377Z,21.06
2022-08-31T13:14:12.934Z,21.24
2022-08-31T13:16:42.567Z,21.21
2022-08-31T13:21:49.569Z,21.22
2022-08-31T13:26:43.733Z,21.29
2022-08-31T13:34:15.087Z,21.33
2022-08-31T13:36:53.157Z,21.24
2022-08-31T13:39:29.530Z,21.25
2022-08-31T13:47:03.703Z,21.28
2022-08-31T13:52:13.783Z,21.10
2022-08-31T13:57:34.880Z,21.05
2022-08-31T14:00:23.339Z,21.20
2022-08-31T14:02:49.774Z,21.17
2022-08-31T14:10:37.021Z,21.43
2022-08-31T14:13:15.374Z,21.47
2022-08-31T14:15:52.270Z,21.34
2022-08-31T14:18:34.832Z,21.40
2022-08-31T14:21:20.739Z,21.26
2022-08-31T14:23:51.883Z,21.24
2022-08-31T14:28:53.143Z,21.20
2022-08-31T14:31:27.091Z,21.16
2022-08-31T14:36:50.200Z,21.11
2022-08-31T14:41:44.259Z,21.11
2022-08-31T14:44:13.361Z,21.29
2022-08-31T14:49:09.321Z,21.38
2022-08-31T14:51:39.003Z,21.39
2022-08-31T14:54:08.743Z,21.41
2022-08-31T14:56:43.414Z,21.50
2022-08-31T15:14:05.265Z,21.37
2022-08-31T15:16:32.072Z,21.14
2022-08-31T15:18:59.533Z,21.09
2022-08-31T15:21:26.482Z,21.15
2022-08-31T15:23:52.869Z,21.03
2022-08-31T15:26:21.377Z,21.08
2022-08-31T15:28:52.647Z,21.06
2022-08-31T15:33:49.392Z,21.19
2022-08-31T15:36:18.314Z,21.25
2022-08-31T15:51:23.529Z,21.27
2022-08-31T15:56:41.024Z,21.17
2022-08-31T15:59:10.118Z,21.14
2022-08-31T16:04:06.428Z,21.15
2022-08-31T16:11:32.112Z,21.12
2022-08-31T16:16:32.041Z,21.13
2022-08-31T16:21:27.122Z,20.89
2022-08-31T16:24:00.809Z,20.79
2022-08-31T16:26:32.748Z,20.80
2022-08-31T16:41:30.540Z,20.67
2022-08-31T16:44:18.975Z,20.57
2022-08-31T16:49:30.890Z,20.51
2022-08-31T16:51:58.334Z,20.39
2022-08-31T16:54:28.468Z,20.43
2022-08-31T16:56:57.747Z,20.41
2022-08-31T16:59:28.830Z,20.49
2022-08-31T17:01:56.344Z,20.39
2022-08-31T17:04:48.163Z,20.50
2022-08-31T17:14:43.333Z,20.28
2022-08-31T17:17:12.158Z,20.23
2022-08-31T17:19:40.923Z,20.22
2022-08-31T17:22:09.510Z,20.29
2022-08-31T17:27:09.557Z,20.24
2022-08-31T17:37:16.564Z,20.06
2022-08-31T17:39:44.942Z,20.00
2022-08-31T17:42:15.229Z,20.00
2022-08-31T17:47:11.205Z,19.93
2022-08-31T17:49:42.114Z,19.92
2022-08-31T17:52:11.125Z,19.86
2022-08-31T17:54:42.027Z,19.65
2022-08-31T17:57:12.022Z,19.60
2022-08-31T18:02:11.871Z,19.54
2022-08-31T18:09:37.721Z,19.35
2022-08-31T18:12:06.266Z,19.32
2022-08-31T18:14:34.725Z,19.20
2022-08-31T18:19:29.405Z,19.10
2022-08-31T18:21:56.883Z,19.06
2022-08-31T18:24:23.449Z,19.05
2022-08-31T18:26:52.215Z,18.98
2022-08-31T18:29:24.354Z,18.88
2022-08-31T18:34:23.642Z,18.80
2022-08-31T18:36:53.303Z,18.88
2022-08-31T18:39:47.645Z,18.93
2022-08-31T18:42:27.629Z,18.88
2022-08-31T18:45:12.859Z,18.88
2022-08-31T18:47:39.507Z,18.90
2022-08-31T18:52:32.710Z,18.82
2022-08-31T18:54:59.381Z,18.82
2022-08-31T18:57:28.111Z,18.73
2022-08-31T18:59:55.372Z,18.64
2022-08-31T19:02:23.133Z,18.65
2022-08-31T19:07:21.137Z,18.59
2022-08-31T19:09:52.389Z,18.59
2022-08-31T19:12:22.189Z,18.56
2022-08-31T19:14:55.663Z,18.49
2022-08-31T19:17:22.818Z,18.47
2022-08-31T19:19:49.845Z,18.43
2022-08-31T19:22:18.671Z,18.44
2022-08-31T19:24:46.208Z,18.30
2022-08-31T19:34:39.087Z,18.31
2022-08-31T19:37:07.835Z,18.26
2022-08-31T19:39:37.261Z,18.27
2022-08-31T19:42:09.493Z,18.12
2022-08-31T19:44:55.858Z,18.10
2022-08-31T19:47:28.773Z,18.09
2022-08-31T19:49:55.974Z,18.05
2022-08-31T19:54:51.901Z,17.98
2022-08-31T19:57:19.448Z,17.93
2022-08-31T19:59:45.974Z,17.88
2022-08-31T20:02:14.111Z,17.90
2022-08-31T20:04:41.736Z,17.84
2022-08-31T20:07:08.580Z,17.80
2022-08-31T20:09:35.811Z,17.73
2022-08-31T20:12:03.409Z,17.72
2022-08-31T20:14:31.509Z,17.69
2022-08-31T20:16:59.528Z,17.72
2022-08-31T20:19:28.219Z,17.69
2022-08-31T20:21:59.969Z,17.69
2022-08-31T20:24:28.178Z,17.57
2022-08-31T20:29:25.719Z,17.48
2022-08-31T20:34:24.326Z,17.49
2022-08-31T20:36:52.319Z,17.36
2022-08-31T20:39:19.835Z,17.36
2022-08-31T20:41:49.639Z,17.33
2022-08-31T20:44:19.276Z,17.34
2022-08-31T20:47:10.751Z,17.29
2022-08-31T20:49:41.105Z,17.26
2022-08-31T20:52:10.631Z,17.30
2022-08-31T20:57:06.389Z,17.21
2022-08-31T20:59:34.427Z,17.22
2022-08-31T21:02:03.319Z,17.20
2022-08-31T21:04:31.765Z,17.23
2022-08-31T21:09:26.965Z,17.12
2022-08-31T21:14:21.726Z,17.02
2022-08-31T21:16:48.671Z,16.98
2022-08-31T21:19:18.460Z,16.92
2022-08-31T21:21:46.173Z,16.93
2022-08-31T21:29:12.935Z,16.88
2022-08-31T21:34:23.192Z,16.75
2022-08-31T21:36:50.135Z,16.73
2022-08-31T21:39:19.653Z,16.70
2022-08-31T21:41:47.158Z,16.70
2022-08-31T21:44:16.903Z,16.71
2022-08-31T21:46:49.760Z,16.57
2022-08-31T21:49:17.838Z,16.57
2022-08-31T21:51:55.937Z,16.54
2022-08-31T21:56:53.384Z,16.45
2022-08-31T21:59:21.941Z,16.50
2022-08-31T22:06:43.512Z,16.28
2022-08-31T22:09:13.503Z,16.27
2022-08-31T22:14:11.301Z,16.23
2022-08-31T22:16:39.341Z,16.21
2022-08-31T22:19:13.176Z,16.14
2022-08-31T22:21:42.890Z,16.13
2022-08-31T22:24:12.108Z,16.14
2022-08-31T22:29:23.711Z,16.03
2022-08-31T22:31:52.277Z,15.99
2022-08-31T22:34:20.899Z,15.92
2022-08-31T22:36:50.761Z,15.89
2022-08-31T22:39:20.701Z,15.84
2022-08-31T22:41:47.306Z,15.88
2022-08-31T22:44:17.383Z,15.95
2022-08-31T22:46:45.214Z,15.96
2022-08-31T22:49:13.224Z,15.92
2022-08-31T22:51:40.887Z,15.86
2022-08-31T22:54:08.841Z,15.82
2022-08-31T22:56:37.543Z,15.78
2022-08-31T22:59:08.850Z,15.69
2022-08-31T23:01:46.418Z,15.65
2022-08-31T23:04:19.637Z,15.72
2022-08-31T23:06:47.815Z,15.73
2022-08-31T23:09:15.401Z,15.70
2022-08-31T23:11:41.922Z,15.65
2022-08-31T23:16:45.985Z,15.62
2022-08-31T23:19:19.027Z,15.63
2022-08-31T23:21:52.962Z,15.56
2022-08-31T23:24:51.679Z,15.60
2022-08-31T23:27:21.355Z,15.62
2022-08-31T23:29:51.234Z,15.53
2022-08-31T23:32:21.341Z,15.51
2022-08-31T23:34:50.797Z,15.53
2022-08-31T23:37:17.719Z,15.52
2022-08-31T23:39:45.757Z,15.54
2022-08-31T23:42:14.331Z,15.56
2022-08-31T23:44:43.449Z,15.62
2022-08-31T23:47:13.532Z,15.57
2022-08-31T23:49:42.155Z,15.49
2022-08-31T23:52:08.612Z,15.42
2022-08-31T23:54:37.187Z,15.40
2022-08-31T23:57:04.750Z,15.36
2022-08-31T23:59:32.177Z,15.28
